sensor_id;sensor_type;location;lat;lon;timestamp;P1;durP1;ratioP1;P2;durP2;ratioP2
11024;SDS011;22890;51.820;8.682;2022-09-09T00:00:12;3.63;;;0.97;;
11024;SDS011;22890;51.820;8.682;2022-09-09T00:02:44;3.47;;;0.80;;
11024;SDS011;22890;51.820;8.682;2022-09-09T00:05:26;0.77;;;0.77;;
11024;SDS011;22890;51.820;8.682;2022-09-09T00:07:59;1.03;;;0.90;;
11024;SDS011;22890;51.820;8.682;2022-09-09T00:10:34;1.60;;;0.80;;
11024;SDS011;22890;51.820;8.682;2022-09-09T00:16:12;3.60;;;0.60;;
11024;SDS011;22890;51.820;8.682;2022-09-09T00:21:25;1.33;;;0.80;;
11024;SDS011;22890;51.820;8.682;2022-09-09T00:24:15;4.53;;;1.20;;
11024;SDS011;22890;51.820;8.682;2022-09-09T00:26:53;2.03;;;1.00;;
11024;SDS011;22890;51.820;8.682;2022-09-09T00:29:41;1.43;;;0.70;;
11024;SDS011;22890;51.820;8.682;2022-09-09T00:32:12;2.67;;;1.20;;
11024;SDS011;22890;51.820;8.682;2022-09-09T00:34:45;3.60;;;1.20;;
11024;SDS011;22890;51.820;8.682;2022-09-09T00:37:42;4.00;;;1.20;;
11024;SDS011;22890;51.820;8.682;2022-09-09T00:40:18;1.97;;;1.10;;
11024;SDS011;22890;51.820;8.682;2022-09-09T00:42:52;2.03;;;1.23;;
11024;SDS011;22890;51.820;8.682;2022-09-09T00:59:47;2.50;;;1.00;;
11024;SDS011;22890;51.820;8.682;2022-09-09T01:02:21;1.77;;;1.20;;
11024;SDS011;22890;51.820;8.682;2022-09-09T01:04:55;1.53;;;1.43;;
11024;SDS011;22890;51.820;8.682;2022-09-09T01:07:28;3.27;;;0.87;;
11024;SDS011;22890;51.820;8.682;2022-09-09T01:09:55;1.87;;;1.10;;
11024;SDS011;22890;51.820;8.682;2022-09-09T01:12:30;1.50;;;0.80;;
11024;SDS011;22890;51.820;8.682;2022-09-09T01:15:09;3.20;;;0.93;;
11024;SDS011;22890;51.820;8.682;2022-09-09T01:17:46;1.27;;;0.90;;
11024;SDS011;22890;51.820;8.682;2022-09-09T01:20:17;3.03;;;1.10;;
11024;SDS011;22890;51.820;8.682;2022-09-09T01:25:29;1.40;;;0.87;;
11024;SDS011;22890;51.820;8.682;2022-09-09T01:28:10;1.10;;;1.00;;
11024;SDS011;22890;51.820;8.682;2022-09-09T01:30:51;3.17;;;1.20;;
11024;SDS011;22890;51.820;8.682;2022-09-09T01:33:19;1.90;;;0.90;;
11024;SDS011;22890;51.820;8.682;2022-09-09T01:36:05;3.07;;;0.80;;
11024;SDS011;22890;51.820;8.682;2022-09-09T01:38:36;3.57;;;1.30;;
11024;SDS011;22890;51.820;8.682;2022-09-09T01:41:03;1.77;;;0.83;;
11024;SDS011;22890;51.820;8.682;2022-09-09T01:43:30;3.30;;;1.10;;
11024;SDS011;22890;51.820;8.682;2022-09-09T01:45:58;3.23;;;0.93;;
11024;SDS011;22890;51.820;8.682;2022-09-09T01:48:27;3.03;;;1.00;;
11024;SDS011;22890;51.820;8.682;2022-09-09T01:50:54;5.40;;;1.03;;
11024;SDS011;22890;51.820;8.682;2022-09-09T01:53:21;1.97;;;1.00;;
11024;SDS011;22890;51.820;8.682;2022-09-09T02:04:34;2.03;;;1.10;;
11024;SDS011;22890;51.820;8.682;2022-09-09T02:07:03;1.83;;;1.23;;
11024;SDS011;22890;51.820;8.682;2022-09-09T02:09:36;5.17;;;1.23;;
11024;SDS011;22890;51.820;8.682;2022-09-09T02:12:14;3.53;;;1.10;;
11024;SDS011;22890;51.820;8.682;2022-09-09T02:14:48;3.17;;;0.90;;
11024;SDS011;22890;51.820;8.682;2022-09-09T02:17:20;4.13;;;1.03;;
11024;SDS011;22890;51.820;8.682;2022-09-09T02:19:54;2.20;;;1.50;;
11024;SDS011;22890;51.820;8.682;2022-09-09T02:22:28;2.47;;;1.10;;
11024;SDS011;22890;51.820;8.682;2022-09-09T02:24:57;2.97;;;1.00;;
11024;SDS011;22890;51.820;8.682;2022-09-09T02:27:25;1.47;;;0.93;;
11024;SDS011;22890;51.820;8.682;2022-09-09T02:29:53;1.83;;;0.90;;
11024;SDS011;22890;51.820;8.682;2022-09-09T02:32:23;1.70;;;1.30;;
11024;SDS011;22890;51.820;8.682;2022-09-09T02:34:55;4.10;;;1.23;;
11024;SDS011;22890;51.820;8.682;2022-09-09T02:37:26;1.13;;;1.03;;
11024;SDS011;22890;51.820;8.682;2022-09-09T02:39:57;1.83;;;1.00;;
11024;SDS011;22890;51.820;8.682;2022-09-09T02:42:24;3.33;;;1.20;;
11024;SDS011;22890;51.820;8.682;2022-09-09T02:44:51;1.13;;;1.00;;
11024;SDS011;22890;51.820;8.682;2022-09-09T02:52:46;4.87;;;1.20;;
11024;SDS011;22890;51.820;8.682;2022-09-09T02:55:41;1.47;;;1.33;;
11024;SDS011;22890;51.820;8.682;2022-09-09T02:58:15;2.47;;;1.30;;
11024;SDS011;22890;51.820;8.682;2022-09-09T03:00:45;3.20;;;1.20;;
11024;SDS011;22890;51.820;8.682;2022-09-09T03:03:15;2.70;;;1.20;;
11024;SDS011;22890;51.820;8.682;2022-09-09T03:05:43;2.53;;;1.00;;
11024;SDS011;22890;51.820;8.682;2022-09-09T03:08:10;3.20;;;1.57;;
11024;SDS011;22890;51.820;8.682;2022-09-09T03:10:36;2.97;;;1.30;;
11024;SDS011;22890;51.820;8.682;2022-09-09T03:13:03;2.47;;;1.27;;
11024;SDS011;22890;51.820;8.682;2022-09-09T03:15:32;1.20;;;0.87;;
11024;SDS011;22890;51.820;8.682;2022-09-09T03:17:59;1.87;;;1.00;;
11024;SDS011;22890;51.820;8.682;2022-09-09T03:20:27;2.83;;;1.20;;
11024;SDS011;22890;51.820;8.682;2022-09-09T03:22:55;1.47;;;1.33;;
11024;SDS011;22890;51.820;8.682;2022-09-09T03:25:22;3.87;;;1.33;;
11024;SDS011;22890;51.820;8.682;2022-09-09T03:27:50;3.60;;;1.20;;
11024;SDS011;22890;51.820;8.682;2022-09-09T03:30:21;2.97;;;1.40;;
11024;SDS011;22890;51.820;8.682;2022-09-09T03:32:48;4.00;;;1.30;;
11024;SDS011;22890;51.820;8.682;2022-09-09T03:35:15;2.70;;;1.23;;
11024;SDS011;22890;51.820;8.682;2022-09-09T03:37:41;2.20;;;1.20;;
11024;SDS011;22890;51.820;8.682;2022-09-09T03:40:08;5.03;;;1.43;;
11024;SDS011;22890;51.820;8.682;2022-09-09T03:42:36;4.17;;;1.57;;
11024;SDS011;22890;51.820;8.682;2022-09-09T03:45:04;7.17;;;1.37;;
11024;SDS011;22890;51.820;8.682;2022-09-09T03:47:32;3.70;;;1.27;;
11024;SDS011;22890;51.820;8.682;2022-09-09T03:49:59;2.80;;;1.30;;
11024;SDS011;22890;51.820;8.682;2022-09-09T03:52:25;3.03;;;1.20;;
11024;SDS011;22890;51.820;8.682;2022-09-09T03:54:52;2.30;;;1.33;;
11024;SDS011;22890;51.820;8.682;2022-09-09T03:57:20;2.47;;;1.27;;
11024;SDS011;22890;51.820;8.682;2022-09-09T03:59:47;5.57;;;1.80;;
11024;SDS011;22890;51.820;8.682;2022-09-09T04:02:14;3.93;;;1.57;;
11024;SDS011;22890;51.820;8.682;2022-09-09T04:04:41;4.70;;;1.50;;
11024;SDS011;22890;51.820;8.682;2022-09-09T04:07:08;2.03;;;1.50;;
11024;SDS011;22890;51.820;8.682;2022-09-09T04:09:34;2.07;;;1.20;;
11024;SDS011;22890;51.820;8.682;2022-09-09T04:12:01;1.53;;;1.10;;
11024;SDS011;22890;51.820;8.682;2022-09-09T04:14:28;2.70;;;1.30;;
11024;SDS011;22890;51.820;8.682;2022-09-09T04:16:55;3.03;;;1.30;;
11024;SDS011;22890;51.820;8.682;2022-09-09T04:19:23;5.57;;;1.53;;
11024;SDS011;22890;51.820;8.682;2022-09-09T04:21:50;3.03;;;1.40;;
11024;SDS011;22890;51.820;8.682;2022-09-09T04:24:17;3.97;;;1.70;;
11024;SDS011;22890;51.820;8.682;2022-09-09T04:26:44;4.13;;;1.67;;
11024;SDS011;22890;51.820;8.682;2022-09-09T04:29:11;3.90;;;1.70;;
11024;SDS011;22890;51.820;8.682;2022-09-09T04:31:38;4.23;;;1.40;;
11024;SDS011;22890;51.820;8.682;2022-09-09T04:34:10;3.97;;;1.30;;
11024;SDS011;22890;51.820;8.682;2022-09-09T04:36:37;2.13;;;1.80;;
11024;SDS011;22890;51.820;8.682;2022-09-09T04:39:05;3.83;;;1.40;;
11024;SDS011;22890;51.820;8.682;2022-09-09T04:41:31;7.83;;;1.70;;
11024;SDS011;22890;51.820;8.682;2022-09-09T04:43:58;1.70;;;1.17;;
11024;SDS011;22890;51.820;8.682;2022-09-09T04:46:26;3.37;;;1.63;;
11024;SDS011;22890;51.820;8.682;2022-09-09T04:48:53;4.10;;;1.27;;
11024;SDS011;22890;51.820;8.682;2022-09-09T04:51:20;2.93;;;1.33;;
11024;SDS011;22890;51.820;8.682;2022-09-09T04:53:47;2.80;;;1.40;;
11024;SDS011;22890;51.820;8.682;2022-09-09T04:56:15;2.43;;;1.50;;
11024;SDS011;22890;51.820;8.682;2022-09-09T04:58:43;3.77;;;1.63;;
11024;SDS011;22890;51.820;8.682;2022-09-09T05:01:11;5.17;;;1.77;;
11024;SDS011;22890;51.820;8.682;2022-09-09T05:03:40;2.77;;;1.80;;
11024;SDS011;22890;51.820;8.682;2022-09-09T05:06:07;2.73;;;1.50;;
11024;SDS011;22890;51.820;8.682;2022-09-09T05:08:36;1.83;;;1.50;;
11024;SDS011;22890;51.820;8.682;2022-09-09T05:11:04;3.80;;;1.93;;
11024;SDS011;22890;51.820;8.682;2022-09-09T05:13:43;1.30;;;1.20;;
11024;SDS011;22890;51.820;8.682;2022-09-09T05:16:11;3.53;;;1.60;;
11024;SDS011;22890;51.820;8.682;2022-09-09T05:18:39;3.47;;;1.67;;
11024;SDS011;22890;51.820;8.682;2022-09-09T05:21:06;3.43;;;1.60;;
11024;SDS011;22890;51.820;8.682;2022-09-09T05:23:33;1.83;;;1.65;;
11024;SDS011;22890;51.820;8.682;2022-09-09T05:26:01;3.93;;;1.90;;
11024;SDS011;22890;51.820;8.682;2022-09-09T05:28:29;2.80;;;1.67;;
11024;SDS011;22890;51.820;8.682;2022-09-09T05:30:57;2.53;;;1.87;;
11024;SDS011;22890;51.820;8.682;2022-09-09T05:33:25;2.97;;;2.10;;
11024;SDS011;22890;51.820;8.682;2022-09-09T05:35:58;2.90;;;1.73;;
11024;SDS011;22890;51.820;8.682;2022-09-09T05:38:28;2.00;;;1.50;;
11024;SDS011;22890;51.820;8.682;2022-09-09T05:40:56;4.73;;;1.70;;
11024;SDS011;22890;51.820;8.682;2022-09-09T05:43:23;9.87;;;2.00;;
11024;SDS011;22890;51.820;8.682;2022-09-09T05:46:00;7.07;;;1.60;;
11024;SDS011;22890;51.820;8.682;2022-09-09T05:48:35;5.63;;;1.60;;
11024;SDS011;22890;51.820;8.682;2022-09-09T05:51:04;4.13;;;1.90;;
11024;SDS011;22890;51.820;8.682;2022-09-09T05:53:32;3.57;;;1.80;;
11024;SDS011;22890;51.820;8.682;2022-09-09T05:56:07;4.63;;;1.87;;
11024;SDS011;22890;51.820;8.682;2022-09-09T05:58:40;4.27;;;1.70;;
11024;SDS011;22890;51.820;8.682;2022-09-09T06:01:10;4.80;;;2.03;;
11024;SDS011;22890;51.820;8.682;2022-09-09T06:03:41;2.27;;;1.80;;
11024;SDS011;22890;51.820;8.682;2022-09-09T06:06:10;6.70;;;2.30;;
11024;SDS011;22890;51.820;8.682;2022-09-09T06:08:39;2.70;;;1.93;;
11024;SDS011;22890;51.820;8.682;2022-09-09T06:11:10;5.00;;;1.90;;
11024;SDS011;22890;51.820;8.682;2022-09-09T06:13:39;5.07;;;2.00;;
11024;SDS011;22890;51.820;8.682;2022-09-09T06:16:13;3.60;;;2.10;;
11024;SDS011;22890;51.820;8.682;2022-09-09T06:18:41;5.93;;;1.60;;
11024;SDS011;22890;51.820;8.682;2022-09-09T06:21:11;4.63;;;1.93;;
11024;SDS011;22890;51.820;8.682;2022-09-09T06:23:44;5.43;;;1.83;;
11024;SDS011;22890;51.820;8.682;2022-09-09T06:26:11;3.67;;;1.80;;
11024;SDS011;22890;51.820;8.682;2022-09-09T06:28:38;4.37;;;1.50;;
11024;SDS011;22890;51.820;8.682;2022-09-09T06:31:06;3.07;;;1.70;;
11024;SDS011;22890;51.820;8.682;2022-09-09T06:33:35;2.60;;;1.70;;
11024;SDS011;22890;51.820;8.682;2022-09-09T06:36:11;3.93;;;1.50;;
11024;SDS011;22890;51.820;8.682;2022-09-09T06:38:41;3.00;;;1.80;;
11024;SDS011;22890;51.820;8.682;2022-09-09T06:41:09;2.20;;;1.70;;
11024;SDS011;22890;51.820;8.682;2022-09-09T06:43:36;3.57;;;1.50;;
11024;SDS011;22890;51.820;8.682;2022-09-09T06:46:07;3.00;;;1.60;;
11024;SDS011;22890;51.820;8.682;2022-09-09T06:48:36;2.60;;;1.53;;
11024;SDS011;22890;51.820;8.682;2022-09-09T06:51:08;6.27;;;1.87;;
11024;SDS011;22890;51.820;8.682;2022-09-09T06:53:37;2.07;;;1.50;;
11024;SDS011;22890;51.820;8.682;2022-09-09T06:58:43;4.77;;;1.67;;
11024;SDS011;22890;51.820;8.682;2022-09-09T07:01:11;6.60;;;1.80;;
11024;SDS011;22890;51.820;8.682;2022-09-09T07:03:44;6.07;;;2.23;;
11024;SDS011;22890;51.820;8.682;2022-09-09T07:06:14;6.60;;;1.70;;
11024;SDS011;22890;51.820;8.682;2022-09-09T07:08:55;3.80;;;1.47;;
11024;SDS011;22890;51.820;8.682;2022-09-09T07:11:25;3.90;;;1.70;;
11024;SDS011;22890;51.820;8.682;2022-09-09T07:13:54;2.77;;;1.50;;
11024;SDS011;22890;51.820;8.682;2022-09-09T07:16:23;2.13;;;1.30;;
11024;SDS011;22890;51.820;8.682;2022-09-09T07:18:51;2.33;;;1.50;;
11024;SDS011;22890;51.820;8.682;2022-09-09T07:21:18;4.07;;;1.50;;
11024;SDS011;22890;51.820;8.682;2022-09-09T07:23:46;2.20;;;1.53;;
11024;SDS011;22890;51.820;8.682;2022-09-09T07:26:14;1.73;;;1.40;;
11024;SDS011;22890;51.820;8.682;2022-09-09T07:28:42;4.07;;;1.50;;
11024;SDS011;22890;51.820;8.682;2022-09-09T07:31:13;7.00;;;2.07;;
11024;SDS011;22890;51.820;8.682;2022-09-09T07:33:52;2.93;;;1.53;;
11024;SDS011;22890;51.820;8.682;2022-09-09T07:36:20;5.63;;;1.77;;
11024;SDS011;22890;51.820;8.682;2022-09-09T07:38:59;5.17;;;1.47;;
11024;SDS011;22890;51.820;8.682;2022-09-09T07:41:29;6.03;;;1.87;;
11024;SDS011;22890;51.820;8.682;2022-09-09T07:44:03;6.87;;;1.70;;
11024;SDS011;22890;51.820;8.682;2022-09-09T07:46:35;2.10;;;1.20;;
11024;SDS011;22890;51.820;8.682;2022-09-09T07:49:02;5.07;;;1.50;;
11024;SDS011;22890;51.820;8.682;2022-09-09T07:51:30;4.43;;;1.57;;
11024;SDS011;22890;51.820;8.682;2022-09-09T07:53:59;5.33;;;1.83;;
11024;SDS011;22890;51.820;8.682;2022-09-09T07:56:28;2.13;;;1.20;;
11024;SDS011;22890;51.820;8.682;2022-09-09T07:58:59;3.97;;;1.37;;
11024;SDS011;22890;51.820;8.682;2022-09-09T08:01:28;3.67;;;1.40;;
11024;SDS011;22890;51.820;8.682;2022-09-09T08:04:00;7.77;;;1.77;;
11024;SDS011;22890;51.820;8.682;2022-09-09T08:06:32;6.17;;;1.97;;
11024;SDS011;22890;51.820;8.682;2022-09-09T08:09:03;3.40;;;1.57;;
11024;SDS011;22890;51.820;8.682;2022-09-09T08:11:31;3.53;;;1.47;;
11024;SDS011;22890;51.820;8.682;2022-09-09T08:14:04;5.67;;;1.37;;
11024;SDS011;22890;51.820;8.682;2022-09-09T08:16:32;6.90;;;1.73;;
11024;SDS011;22890;51.820;8.682;2022-09-09T08:19:02;4.23;;;1.90;;
11024;SDS011;22890;51.820;8.682;2022-09-09T08:21:30;4.57;;;1.33;;
11024;SDS011;22890;51.820;8.682;2022-09-09T08:23:59;3.20;;;1.27;;
11024;SDS011;22890;51.820;8.682;2022-09-09T08:26:27;4.57;;;1.00;;
11024;SDS011;22890;51.820;8.682;2022-09-09T08:28:57;2.70;;;1.33;;
11024;SDS011;22890;51.820;8.682;2022-09-09T08:33:56;1.20;;;0.50;;
11024;SDS011;22890;51.820;8.682;2022-09-09T08:36:26;2.47;;;0.90;;
11024;SDS011;22890;51.820;8.682;2022-09-09T08:38:55;5.43;;;0.87;;
11024;SDS011;22890;51.820;8.682;2022-09-09T08:52:18;2.77;;;0.90;;
11024;SDS011;22890;51.820;8.682;2022-09-09T08:54:49;2.60;;;0.70;;
11024;SDS011;22890;51.820;8.682;2022-09-09T08:57:20;1.97;;;0.77;;
11024;SDS011;22890;51.820;8.682;2022-09-09T08:59:52;3.27;;;0.87;;
11024;SDS011;22890;51.820;8.682;2022-09-09T09:02:45;2.97;;;0.90;;
11024;SDS011;22890;51.820;8.682;2022-09-09T09:08:08;8.33;;;1.27;;
11024;SDS011;22890;51.820;8.682;2022-09-09T09:10:55;4.20;;;1.10;;
11024;SDS011;22890;51.820;8.682;2022-09-09T09:19:08;4.70;;;1.27;;
11024;SDS011;22890;51.820;8.682;2022-09-09T09:21:44;2.70;;;0.77;;
11024;SDS011;22890;51.820;8.682;2022-09-09T09:24:18;2.83;;;1.17;;
11024;SDS011;22890;51.820;8.682;2022-09-09T09:26:47;6.50;;;1.50;;
11024;SDS011;22890;51.820;8.682;2022-09-09T09:29:15;3.67;;;1.30;;
11024;SDS011;22890;51.820;8.682;2022-09-09T09:31:56;8.27;;;2.33;;
11024;SDS011;22890;51.820;8.682;2022-09-09T09:34:28;3.70;;;1.73;;
11024;SDS011;22890;51.820;8.682;2022-09-09T09:36:58;3.97;;;1.50;;
11024;SDS011;22890;51.820;8.682;2022-09-09T09:39:30;7.87;;;1.80;;
11024;SDS011;22890;51.820;8.682;2022-09-09T09:42:23;4.87;;;1.43;;
11024;SDS011;22890;51.820;8.682;2022-09-09T09:44:51;3.93;;;1.50;;
11024;SDS011;22890;51.820;8.682;2022-09-09T09:47:19;5.03;;;1.53;;
11024;SDS011;22890;51.820;8.682;2022-09-09T09:52:30;2.43;;;1.10;;
11024;SDS011;22890;51.820;8.682;2022-09-09T09:54:58;4.73;;;2.13;;
11024;SDS011;22890;51.820;8.682;2022-09-09T09:57:32;5.90;;;1.77;;
11024;SDS011;22890;51.820;8.682;2022-09-09T10:00:04;4.23;;;1.30;;
11024;SDS011;22890;51.820;8.682;2022-09-09T10:02:41;2.87;;;1.37;;
11024;SDS011;22890;51.820;8.682;2022-09-09T10:07:41;2.77;;;1.10;;
11024;SDS011;22890;51.820;8.682;2022-09-09T10:10:29;3.10;;;1.13;;
11024;SDS011;22890;51.820;8.682;2022-09-09T10:19:29;3.63;;;0.80;;
11024;SDS011;22890;51.820;8.682;2022-09-09T10:22:11;3.63;;;1.00;;
11024;SDS011;22890;51.820;8.682;2022-09-09T10:30:04;5.87;;;1.40;;
11024;SDS011;22890;51.820;8.682;2022-09-09T10:32:37;4.07;;;1.30;;
11024;SDS011;22890;51.820;8.682;2022-09-09T10:35:27;3.70;;;1.03;;
11024;SDS011;22890;51.820;8.682;2022-09-09T10:40:50;3.57;;;1.00;;
11024;SDS011;22890;51.820;8.682;2022-09-09T10:43:36;2.20;;;1.07;;
11024;SDS011;22890;51.820;8.682;2022-09-09T10:49:28;2.10;;;0.70;;
11024;SDS011;22890;51.820;8.682;2022-09-09T10:52:13;2.10;;;0.93;;
11024;SDS011;22890;51.820;8.682;2022-09-09T10:55:02;2.07;;;1.00;;
11024;SDS011;22890;51.820;8.682;2022-09-09T10:57:33;2.30;;;0.83;;
11024;SDS011;22890;51.820;8.682;2022-09-09T11:00:16;6.13;;;1.27;;
11024;SDS011;22890;51.820;8.682;2022-09-09T11:02:51;3.13;;;0.73;;
11024;SDS011;22890;51.820;8.682;2022-09-09T11:08:05;9.90;;;1.37;;
11024;SDS011;22890;51.820;8.682;2022-09-09T11:10:45;2.53;;;0.83;;
11024;SDS011;22890;51.820;8.682;2022-09-09T11:15:53;3.27;;;1.00;;
11024;SDS011;22890;51.820;8.682;2022-09-09T11:18:26;4.93;;;1.20;;
11024;SDS011;22890;51.820;8.682;2022-09-09T11:20:59;3.60;;;0.93;;
11024;SDS011;22890;51.820;8.682;2022-09-09T11:23:39;6.20;;;1.37;;
11024;SDS011;22890;51.820;8.682;2022-09-09T11:26:13;2.00;;;1.10;;
11024;SDS011;22890;51.820;8.682;2022-09-09T11:36:57;2.87;;;0.83;;
11024;SDS011;22890;51.820;8.682;2022-09-09T11:39:50;3.73;;;1.00;;
11024;SDS011;22890;51.820;8.682;2022-09-09T11:42:35;0.70;;;0.60;;
11024;SDS011;22890;51.820;8.682;2022-09-09T11:45:09;3.83;;;0.90;;
11024;SDS011;22890;51.820;8.682;2022-09-09T11:47:37;3.57;;;0.90;;
11024;SDS011;22890;51.820;8.682;2022-09-09T11:52:42;3.27;;;0.97;;
11024;SDS011;22890;51.820;8.682;2022-09-09T11:55:27;1.97;;;0.70;;
11024;SDS011;22890;51.820;8.682;2022-09-09T11:58:06;4.27;;;0.73;;
11024;SDS011;22890;51.820;8.682;2022-09-09T12:00:44;5.10;;;1.17;;
11024;SDS011;22890;51.820;8.682;2022-09-09T12:06:17;4.03;;;0.90;;
11024;SDS011;22890;51.820;8.682;2022-09-09T12:08:53;3.30;;;1.00;;
11024;SDS011;22890;51.820;8.682;2022-09-09T12:11:25;2.23;;;0.57;;
11024;SDS011;22890;51.820;8.682;2022-09-09T12:13:57;3.67;;;1.03;;
11024;SDS011;22890;51.820;8.682;2022-09-09T12:16:33;2.67;;;1.10;;
11024;SDS011;22890;51.820;8.682;2022-09-09T12:19:04;2.80;;;0.63;;
11024;SDS011;22890;51.820;8.682;2022-09-09T12:22:01;3.97;;;1.10;;
11024;SDS011;22890;51.820;8.682;2022-09-09T12:24:42;5.93;;;0.87;;
11024;SDS011;22890;51.820;8.682;2022-09-09T12:30:10;1.50;;;0.67;;
11024;SDS011;22890;51.820;8.682;2022-09-09T12:32:41;4.50;;;1.07;;
11024;SDS011;22890;51.820;8.682;2022-09-09T12:37:43;1.50;;;0.70;;
11024;SDS011;22890;51.820;8.682;2022-09-09T12:42:51;2.43;;;0.90;;
11024;SDS011;22890;51.820;8.682;2022-09-09T12:45:18;0.57;;;0.40;;
11024;SDS011;22890;51.820;8.682;2022-09-09T12:54:34;3.40;;;0.90;;
11024;SDS011;22890;51.820;8.682;2022-09-09T12:57:02;1.30;;;0.70;;
11024;SDS011;22890;51.820;8.682;2022-09-09T12:59:35;2.70;;;1.03;;
11024;SDS011;22890;51.820;8.682;2022-09-09T13:02:11;2.10;;;0.70;;
11024;SDS011;22890;51.820;8.682;2022-09-09T13:04:48;2.20;;;1.13;;
11024;SDS011;22890;51.820;8.682;2022-09-09T13:07:17;2.50;;;1.27;;
11024;SDS011;22890;51.820;8.682;2022-09-09T13:09:46;3.90;;;0.80;;
11024;SDS011;22890;51.820;8.682;2022-09-09T13:12:15;1.60;;;0.60;;
11024;SDS011;22890;51.820;8.682;2022-09-09T13:14:45;1.93;;;0.80;;
11024;SDS011;22890;51.820;8.682;2022-09-09T13:17:18;2.10;;;0.90;;
11024;SDS011;22890;51.820;8.682;2022-09-09T13:19:50;1.13;;;1.00;;
11024;SDS011;22890;51.820;8.682;2022-09-09T13:24:47;8.17;;;1.23;;
11024;SDS011;22890;51.820;8.682;2022-09-09T13:29:59;2.80;;;1.20;;
11024;SDS011;22890;51.820;8.682;2022-09-09T13:32:27;3.73;;;1.47;;
11024;SDS011;22890;51.820;8.682;2022-09-09T13:34:55;6.70;;;1.53;;
11024;SDS011;22890;51.820;8.682;2022-09-09T13:37:23;4.20;;;0.90;;
11024;SDS011;22890;51.820;8.682;2022-09-09T13:39:59;3.60;;;0.80;;
11024;SDS011;22890;51.820;8.682;2022-09-09T13:42:28;5.10;;;1.17;;
11024;SDS011;22890;51.820;8.682;2022-09-09T13:44:57;3.00;;;1.00;;
11024;SDS011;22890;51.820;8.682;2022-09-09T13:47:30;3.70;;;0.80;;
11024;SDS011;22890;51.820;8.682;2022-09-09T13:49:58;2.63;;;0.90;;
11024;SDS011;22890;51.820;8.682;2022-09-09T13:52:35;5.73;;;1.23;;
11024;SDS011;22890;51.820;8.682;2022-09-09T13:55:02;3.30;;;1.00;;
11024;SDS011;22890;51.820;8.682;2022-09-09T13:57:29;2.13;;;1.07;;
11024;SDS011;22890;51.820;8.682;2022-09-09T13:59:55;2.13;;;0.70;;
11024;SDS011;22890;51.820;8.682;2022-09-09T14:02:31;2.67;;;0.90;;
11024;SDS011;22890;51.820;8.682;2022-09-09T14:04:58;1.03;;;0.60;;
11024;SDS011;22890;51.820;8.682;2022-09-09T14:07:25;2.00;;;0.73;;
11024;SDS011;22890;51.820;8.682;2022-09-09T14:09:52;2.07;;;0.87;;
11024;SDS011;22890;51.820;8.682;2022-09-09T14:12:19;2.03;;;0.80;;
11024;SDS011;22890;51.820;8.682;2022-09-09T14:14:46;2.77;;;0.90;;
11024;SDS011;22890;51.820;8.682;2022-09-09T14:17:13;2.07;;;0.77;;
11024;SDS011;22890;51.820;8.682;2022-09-09T14:19:40;1.57;;;0.70;;
11024;SDS011;22890;51.820;8.682;2022-09-09T14:22:08;1.53;;;0.80;;
11024;SDS011;22890;51.820;8.682;2022-09-09T14:24:35;1.73;;;0.60;;
11024;SDS011;22890;51.820;8.682;2022-09-09T14:27:01;1.50;;;0.60;;
11024;SDS011;22890;51.820;8.682;2022-09-09T14:29:28;2.47;;;0.80;;
11024;SDS011;22890;51.820;8.682;2022-09-09T14:31:55;1.33;;;0.60;;
11024;SDS011;22890;51.820;8.682;2022-09-09T14:34:21;1.93;;;0.87;;
11024;SDS011;22890;51.820;8.682;2022-09-09T14:36:48;1.47;;;0.50;;
11024;SDS011;22890;51.820;8.682;2022-09-09T14:39:15;2.37;;;0.50;;
11024;SDS011;22890;51.820;8.682;2022-09-09T14:41:42;3.10;;;1.13;;
11024;SDS011;22890;51.820;8.682;2022-09-09T14:44:09;1.10;;;0.60;;
11024;SDS011;22890;51.820;8.682;2022-09-09T14:46:36;2.37;;;1.00;;
11024;SDS011;22890;51.820;8.682;2022-09-09T14:49:02;2.40;;;0.80;;
11024;SDS011;22890;51.820;8.682;2022-09-09T14:51:30;4.43;;;0.67;;
11024;SDS011;22890;51.820;8.682;2022-09-09T14:53:58;1.53;;;0.77;;
11024;SDS011;22890;51.820;8.682;2022-09-09T14:56:26;1.80;;;0.70;;
11024;SDS011;22890;51.820;8.682;2022-09-09T14:58:56;2.03;;;0.90;;
11024;SDS011;22890;51.820;8.682;2022-09-09T15:01:24;2.30;;;0.70;;
11024;SDS011;22890;51.820;8.682;2022-09-09T15:03:56;2.80;;;0.70;;
11024;SDS011;22890;51.820;8.682;2022-09-09T15:06:25;1.47;;;0.60;;
11024;SDS011;22890;51.820;8.682;2022-09-09T15:08:53;4.10;;;0.77;;
11024;SDS011;22890;51.820;8.682;2022-09-09T15:11:20;2.60;;;1.00;;
11024;SDS011;22890;51.820;8.682;2022-09-09T15:13:47;1.57;;;0.57;;
11024;SDS011;22890;51.820;8.682;2022-09-09T15:16:18;2.23;;;0.90;;
11024;SDS011;22890;51.820;8.682;2022-09-09T15:18:46;2.73;;;1.10;;
11024;SDS011;22890;51.820;8.682;2022-09-09T15:21:18;0.93;;;0.70;;
11024;SDS011;22890;51.820;8.682;2022-09-09T15:23:45;3.83;;;0.70;;
11024;SDS011;22890;51.820;8.682;2022-09-09T15:26:13;2.40;;;0.97;;
11024;SDS011;22890;51.820;8.682;2022-09-09T15:28:41;2.50;;;0.70;;
11024;SDS011;22890;51.820;8.682;2022-09-09T15:33:36;1.17;;;0.60;;
11024;SDS011;22890;51.820;8.682;2022-09-09T15:36:19;1.87;;;0.67;;
11024;SDS011;22890;51.820;8.682;2022-09-09T15:38:50;3.63;;;0.70;;
11024;SDS011;22890;51.820;8.682;2022-09-09T15:41:18;1.97;;;1.20;;
11024;SDS011;22890;51.820;8.682;2022-09-09T15:43:47;1.93;;;0.73;;
11024;SDS011;22890;51.820;8.682;2022-09-09T15:49:04;1.83;;;0.87;;
11024;SDS011;22890;51.820;8.682;2022-09-09T15:51:37;2.27;;;0.80;;
11024;SDS011;22890;51.820;8.682;2022-09-09T15:54:09;2.20;;;0.60;;
11024;SDS011;22890;51.820;8.682;2022-09-09T15:56:38;1.70;;;0.70;;
11024;SDS011;22890;51.820;8.682;2022-09-09T15:59:05;4.60;;;1.40;;
11024;SDS011;22890;51.820;8.682;2022-09-09T16:01:31;4.10;;;1.00;;
11024;SDS011;22890;51.820;8.682;2022-09-09T16:03:59;1.23;;;0.90;;
11024;SDS011;22890;51.820;8.682;2022-09-09T16:06:27;2.33;;;0.83;;
11024;SDS011;22890;51.820;8.682;2022-09-09T16:08:55;6.07;;;1.23;;
11024;SDS011;22890;51.820;8.682;2022-09-09T16:11:24;3.23;;;0.80;;
11024;SDS011;22890;51.820;8.682;2022-09-09T16:13:53;3.77;;;1.17;;
11024;SDS011;22890;51.820;8.682;2022-09-09T16:16:22;4.80;;;1.47;;
11024;SDS011;22890;51.820;8.682;2022-09-09T16:18:52;3.70;;;1.40;;
11024;SDS011;22890;51.820;8.682;2022-09-09T16:21:22;5.40;;;1.20;;
11024;SDS011;22890;51.820;8.682;2022-09-09T16:23:51;2.97;;;1.57;;
11024;SDS011;22890;51.820;8.682;2022-09-09T16:26:19;6.90;;;1.60;;
11024;SDS011;22890;51.820;8.682;2022-09-09T16:28:46;5.70;;;1.53;;
11024;SDS011;22890;51.820;8.682;2022-09-09T16:31:16;1.83;;;1.23;;
11024;SDS011;22890;51.820;8.682;2022-09-09T16:33:45;3.83;;;2.30;;
11024;SDS011;22890;51.820;8.682;2022-09-09T16:36:15;3.57;;;0.87;;
11024;SDS011;22890;51.820;8.682;2022-09-09T16:38:43;6.07;;;1.50;;
11024;SDS011;22890;51.820;8.682;2022-09-09T16:41:11;2.67;;;1.10;;
11024;SDS011;22890;51.820;8.682;2022-09-09T16:43:39;3.33;;;1.70;;
11024;SDS011;22890;51.820;8.682;2022-09-09T16:46:13;1.87;;;1.00;;
11024;SDS011;22890;51.820;8.682;2022-09-09T16:48:44;2.87;;;1.37;;
11024;SDS011;22890;51.820;8.682;2022-09-09T16:51:13;2.00;;;1.10;;
11024;SDS011;22890;51.820;8.682;2022-09-09T16:53:40;2.00;;;1.17;;
11024;SDS011;22890;51.820;8.682;2022-09-09T16:56:10;2.40;;;1.27;;
11024;SDS011;22890;51.820;8.682;2022-09-09T16:58:41;2.93;;;0.93;;
11024;SDS011;22890;51.820;8.682;2022-09-09T17:01:11;3.73;;;0.90;;
11024;SDS011;22890;51.820;8.682;2022-09-09T17:03:40;2.57;;;1.17;;
11024;SDS011;22890;51.820;8.682;2022-09-09T17:06:09;4.17;;;1.00;;
11024;SDS011;22890;51.820;8.682;2022-09-09T17:08:36;6.43;;;1.77;;
11024;SDS011;22890;51.820;8.682;2022-09-09T17:11:03;0.90;;;0.70;;
11024;SDS011;22890;51.820;8.682;2022-09-09T17:13:31;1.77;;;1.37;;
11024;SDS011;22890;51.820;8.682;2022-09-09T17:15:57;2.00;;;1.30;;
11024;SDS011;22890;51.820;8.682;2022-09-09T17:18:28;1.70;;;1.17;;